Time;durP1;ratioP1;P1;durP2;ratioP2;P2;SDS_P1;SDS_P2;PMS_P1;PMS_P2;Temp;Humidity;BMP_temperature;BMP_pressure;BME280_temperature;BME280_humidity;BME280_pressure;Samples;Min_cycle;Max_cycle;Signal;HPM_P1;HPM_P2
2023/07/24 00:00:15;;;;;;;5.07;3.08;;;;;;;19.76;90.45;99648.16;5034268;28;20038;-79
2023/07/24 00:02:41;;;;;;;8.25;3.25;;;;;;;19.69;91.00;99646.00;5021977;28;20055;-79
2023/07/24 00:05:10;;;;;;;10.55;3.50;;;;;;;19.61;91.99;99645.19;5043147;28;20469;-79
2023/07/24 00:07:37;;;;;;;8.38;3.42;;;;;;;19.53;92.77;99642.25;5040505;28;20459;-79
2023/07/24 00:10:04;;;;;;;4.85;2.90;;;;;;;19.42;93.55;99625.19;5035298;28;20026;-79
2023/07/24 00:12:31;;;;;;;8.25;2.83;;;;;;;19.30;93.82;99626.88;5033652;28;20049;-79
2023/07/24 00:14:58;;;;;;;6.47;2.88;;;;;;;19.34;95.55;99638.09;5035329;28;20502;-78
2023/07/24 00:17:24;;;;;;;6.68;3.33;;;;;;;19.25;96.19;99629.94;5035310;28;20025;-77
2023/07/24 00:19:51;;;;;;;5.30;2.83;;;;;;;19.20;96.86;99627.97;5034994;28;20037;-78
2023/07/24 00:22:25;;;;;;;8.82;3.88;;;;;;;19.13;98.06;99632.34;5017584;28;20041;-79
2023/07/24 00:24:52;;;;;;;8.52;3.58;;;;;;;19.06;98.27;99622.28;5034670;28;20467;-79
2023/07/24 00:27:17;;;;;;;7.30;2.80;;;;;;;19.03;98.22;99634.19;5035215;28;20026;-79
2023/07/24 00:29:43;;;;;;;8.90;3.15;;;;;;;18.96;98.99;99629.94;5035130;28;20056;-79
2023/07/24 00:32:10;;;;;;;5.57;2.92;;;;;;;18.89;99.99;99627.75;5034869;28;20045;-80
2023/07/24 00:34:37;;;;;;;8.60;3.92;;;;;;;18.84;100.00;99625.78;5035456;28;20041;-80
2023/07/24 00:37:04;;;;;;;6.80;3.50;;;;;;;18.78;100.00;99628.03;5034924;28;20025;-79
2023/07/24 00:39:31;;;;;;;8.63;4.00;;;;;;;18.73;100.00;99622.38;5035145;28;20056;-79
2023/07/24 00:41:57;;;;;;;5.07;3.40;;;;;;;18.69;100.00;99622.75;5034140;28;20037;-80
2023/07/24 00:44:23;;;;;;;12.10;3.95;;;;;;;18.62;100.00;99615.56;5034622;28;20490;-79
2023/07/24 00:46:52;;;;;;;10.18;3.78;;;;;;;18.59;100.00;99619.59;5034401;28;20133;-79
2023/07/24 00:49:19;;;;;;;9.65;3.08;;;;;;;18.51;100.00;99623.75;5033479;28;20026;-78
2023/07/24 00:51:53;;;;;;;8.95;3.00;;;;;;;18.43;100.00;99606.31;5033366;28;20041;-80
2023/07/24 00:54:19;;;;;;;8.30;3.33;;;;;;;18.46;100.00;99616.00;5034534;28;20080;-78
2023/07/24 00:56:45;;;;;;;7.40;3.70;;;;;;;18.44;100.00;99615.78;5033469;28;20025;-80
2023/07/24 00:59:19;;;;;;;6.38;3.72;;;;;;;18.41;100.00;99609.03;5033124;28;20060;-79
2023/07/24 01:01:53;;;;;;;7.72;2.97;;;;;;;18.40;100.00;99609.56;5034302;28;20026;-78
2023/07/24 01:04:19;;;;;;;11.93;4.10;;;;;;;18.39;100.00;99608.78;5034379;28;20466;-79
2023/07/24 01:06:46;;;;;;;7.68;3.38;;;;;;;18.37;100.00;99611.50;5032365;28;20029;-79
2023/07/24 01:09:12;;;;;;;10.90;3.13;;;;;;;18.34;100.00;99612.59;5034263;28;20025;-79
2023/07/24 01:11:43;;;;;;;8.95;3.33;;;;;;;18.39;100.00;99622.47;5034342;28;20033;-79
2023/07/24 01:14:51;;;;;;;8.73;3.05;;;;;;;18.38;100.00;99632.50;5032554;28;20421;-80
2023/07/24 01:17:26;;;;;;;11.00;4.30;;;;;;;18.38;100.00;99627.50;5012184;28;20034;-79
2023/07/24 01:19:58;;;;;;;6.70;3.65;;;;;;;18.38;100.00;99624.59;5030052;28;20048;-80
2023/07/24 01:22:32;;;;;;;;;;;;;;;18.40;100.00;99627.72;5000860;28;20029;-78
2023/07/24 01:25:27;;;;;;;9.68;3.13;;;;;;;18.40;100.00;99624.03;5034015;28;19913;-79
2023/07/24 01:27:52;;;;;;;9.90;3.83;;;;;;;18.35;100.00;99617.06;5033749;28;20060;-78
2023/07/24 01:30:20;;;;;;;9.07;3.50;;;;;;;18.37;100.00;99617.28;5033623;28;20064;-79
2023/07/24 01:32:46;;;;;;;7.10;3.30;;;;;;;18.33;100.00;99622.63;5033131;28;20371;-79
2023/07/24 01:35:20;;;;;;;7.82;3.65;;;;;;;18.26;100.00;99618.31;5032914;28;20533;-79
2023/07/24 01:37:46;;;;;;;15.38;3.30;;;;;;;18.26;100.00;99617.53;5032165;28;20018;-79
2023/07/24 01:40:12;;;;;;;6.88;3.35;;;;;;;18.27;100.00;99616.19;5016043;28;20403;-80
2023/07/24 01:42:39;;;;;;;8.70;3.70;;;;;;;18.17;100.00;99615.13;5033068;28;20048;-80
2023/07/24 01:45:06;;;;;;;10.82;3.50;;;;;;;18.15;100.00;99621.47;5033790;28;20042;-79
2023/07/24 01:47:31;;;;;;;8.07;4.05;;;;;;;18.14;100.00;99616.22;5033107;28;20467;-80
2023/07/24 01:50:06;;;;;;;12.05;3.70;;;;;;;18.10;100.00;99610.81;5048868;28;20086;-79
2023/07/24 01:52:35;;;;;;;6.38;3.38;;;;;;;18.00;100.00;99597.38;5033336;28;20021;-78
2023/07/24 01:55:03;;;;;;;8.30;3.17;;;;;;;18.05;100.00;99611.72;5033716;28;20109;-78
2023/07/24 01:57:30;;;;;;;8.70;3.45;;;;;;;18.11;100.00;99617.38;5032376;28;20025;-79
2023/07/24 01:59:57;;;;;;;7.03;3.35;;;;;;;17.93;100.00;99580.75;5033791;28;20108;-79
2023/07/24 02:02:23;;;;;;;8.38;3.95;;;;;;;18.08;100.00;99604.78;5031867;28;20099;-79
2023/07/24 02:04:50;;;;;;;6.53;3.50;;;;;;;18.07;100.00;99600.38;5034091;28;20120;-79
2023/07/24 02:07:17;;;;;;;6.85;2.88;;;;;;;18.05;100.00;99608.81;5032026;28;20041;-79
2023/07/24 02:09:43;;;;;;;10.00;3.60;;;;;;;18.05;100.00;99593.59;5033794;28;20045;-81
2023/07/24 02:12:09;;;;;;;7.95;3.20;;;;;;;18.05;100.00;99602.25;5015508;28;20124;-80
2023/07/24 02:14:36;;;;;;;12.05;3.92;;;;;;;18.05;100.00;99590.69;5032349;28;20025;-81
2023/07/24 02:17:02;;;;;;;6.05;3.35;;;;;;;18.06;100.00;99587.25;5015438;28;20029;-79
2023/07/24 02:19:29;;;;;;;7.82;3.35;;;;;;;18.09;100.00;99594.00;5032956;28;20128;-80
2023/07/24 02:21:54;;;;;;;7.50;3.78;;;;;;;18.08;100.00;99580.91;5031801;28;20128;-80
2023/07/24 02:24:21;;;;;;;10.50;3.38;;;;;;;18.13;100.00;99577.84;5031899;28;20112;-80
2023/07/24 02:26:47;;;;;;;12.07;3.72;;;;;;;18.10;100.00;99584.00;5032689;28;20072;-80
2023/07/24 02:29:12;;;;;;;8.30;3.83;;;;;;;18.09;100.00;99577.44;5033016;28;20125;-79
2023/07/24 02:31:38;;;;;;;8.10;3.40;;;;;;;18.13;100.00;99571.28;5031634;28;20124;-79
2023/07/24 02:34:05;;;;;;;10.63;3.85;;;;;;;18.14;100.00;99575.75;5031935;28;20034;-79
2023/07/24 02:36:34;;;;;;;5.55;3.72;;;;;;;18.06;100.00;99563.34;5047809;28;20084;-79
2023/07/24 02:39:01;;;;;;;8.48;4.07;;;;;;;18.00;100.00;99562.69;5032265;28;20123;-79
2023/07/24 02:41:27;;;;;;;7.57;3.40;;;;;;;18.02;100.00;99569.47;5033179;28;20029;-79
2023/07/24 02:43:52;;;;;;;7.85;3.47;;;;;;;17.95;100.00;99567.28;5032665;28;20068;-79
2023/07/24 02:46:19;;;;;;;9.07;3.70;;;;;;;17.96;100.00;99571.72;5032425;28;20069;-78
2023/07/24 02:48:45;;;;;;;7.97;3.35;;;;;;;17.98;100.00;99574.06;5034946;28;20036;-80
2023/07/24 02:51:12;;;;;;;6.15;3.45;;;;;;;17.95;100.00;99572.28;5036985;28;20410;-79
2023/07/24 02:53:38;;;;;;;7.85;3.47;;;;;;;17.90;100.00;99567.41;5037664;28;20110;-79
2023/07/24 02:56:04;;;;;;;9.52;3.50;;;;;;;17.86;100.00;99564.88;5035690;28;20112;-81
2023/07/24 02:58:38;;;;;;;8.98;3.83;;;;;;;17.83;100.00;99558.09;5035286;28;20037;-80
2023/07/24 03:01:06;;;;;;;4.95;3.38;;;;;;;17.77;100.00;99557.47;5037118;28;20021;-79
2023/07/24 03:03:34;;;;;;;7.10;3.50;;;;;;;17.70;100.00;99572.59;5035421;28;20048;-77
2023/07/24 03:06:01;;;;;;;9.70;4.13;;;;;;;17.63;100.00;99570.41;5002628;28;20037;-80
2023/07/24 03:08:27;;;;;;;7.50;3.72;;;;;;;17.58;100.00;99558.97;5003095;28;20568;-78
2023/07/24 03:10:55;;;;;;;9.50;3.28;;;;;;;17.49;100.00;99551.53;5036096;28;20053;-78
2023/07/24 03:13:21;;;;;;;7.13;3.67;;;;;;;17.50;100.00;99558.09;5036344;28;20470;-79
2023/07/24 03:15:55;;;;;;;10.75;3.65;;;;;;;17.47;100.00;99557.13;5034933;28;20485;-79
2023/07/24 03:18:21;;;;;;;8.52;3.80;;;;;;;17.44;100.00;99561.09;5018518;28;20116;-79
2023/07/24 03:20:46;;;;;;;10.45;3.47;;;;;;;17.43;100.00;99556.66;5036425;28;20077;-79
2023/07/24 03:23:13;;;;;;;11.02;3.65;;;;;;;17.37;100.00;99551.00;5018563;28;20026;-79
2023/07/24 03:25:40;;;;;;;14.45;3.83;;;;;;;17.38;100.00;99551.78;5036176;28;20021;-80
2023/07/24 03:28:14;;;;;;;12.75;4.10;;;;;;;17.44;100.00;99561.09;5036110;28;20352;-79
2023/07/24 03:30:39;;;;;;;17.98;3.95;;;;;;;17.49;100.00;99562.34;5036896;28;20032;-79
2023/07/24 03:33:06;;;;;;;10.90;3.90;;;;;;;17.56;100.00;99561.66;5036512;28;20021;-79
2023/07/24 03:35:32;;;;;;;8.23;4.20;;;;;;;17.63;100.00;99563.84;5035280;28;20021;-78
2023/07/24 03:37:57;;;;;;;9.27;3.35;;;;;;;17.71;100.00;99571.25;5034663;28;20494;-79
2023/07/24 03:40:23;;;;;;;8.20;3.50;;;;;;;17.77;100.00;99571.13;5034595;28;20442;-80
2023/07/24 03:42:52;;;;;;;8.85;3.95;;;;;;;17.83;100.00;99566.75;5035951;28;20029;-78
2023/07/24 03:45:19;;;;;;;8.15;3.47;;;;;;;17.92;100.00;99562.63;5035774;28;20059;-79
2023/07/24 03:47:48;;;;;;;8.65;3.67;;;;;;;18.09;100.00;99565.09;5036181;28;20026;-79
2023/07/24 03:50:14;;;;;;;6.82;3.90;;;;;;;18.18;100.00;99555.91;5035882;28;20045;-79
2023/07/24 03:52:41;;;;;;;7.72;3.20;;;;;;;18.30;100.00;99550.63;5035802;28;20033;-79
2023/07/24 03:55:09;;;;;;;8.18;3.80;;;;;;;18.39;100.00;99548.03;5035810;28;20068;-79
2023/07/24 03:57:34;;;;;;;11.38;3.53;;;;;;;18.45;100.00;99545.00;5034510;28;20030;-78
2023/07/24 04:00:09;;;;;;;8.15;3.55;;;;;;;18.54;100.00;99542.38;5033440;28;20049;-79
2023/07/24 04:02:35;;;;;;;10.05;3.53;;;;;;;18.60;100.00;99540.13;5033825;28;20095;-79
2023/07/24 04:05:02;;;;;;;9.38;3.42;;;;;;;18.63;100.00;99541.84;5034452;28;20029;-78
2023/07/24 04:07:29;;;;;;;4.63;2.90;;;;;;;18.75;100.00;99551.00;5017499;28;20022;-78
2023/07/24 04:09:54;;;;;;;4.70;3.10;;;;;;;18.81;100.00;99539.28;5035083;28;20128;-79
2023/07/24 04:12:19;;;;;;;5.82;3.83;;;;;;;18.88;100.00;99547.22;5035052;28;20040;-79
2023/07/24 04:14:45;;;;;;;7.68;3.33;;;;;;;18.96;100.00;99551.75;5035505;28;20128;-79
2023/07/24 04:17:10;;;;;;;7.43;3.80;;;;;;;19.05;100.00;99557.00;5035510;28;20352;-79
2023/07/24 04:19:37;;;;;;;5.57;3.50;;;;;;;19.16;100.00;99555.94;5035266;28;20025;-79
2023/07/24 04:22:03;;;;;;;8.23;3.35;;;;;;;19.17;100.00;99548.78;5035095;28;20024;-79
2023/07/24 04:24:29;;;;;;;10.00;3.72;;;;;;;19.34;100.00;99559.88;5035248;28;20104;-79
2023/07/24 04:26:55;;;;;;;4.28;3.35;;;;;;;19.42;100.00;99558.53;5034700;28;20022;-78
2023/07/24 04:29:24;;;;;;;5.97;3.47;;;;;;;19.47;100.00;99562.63;5034355;28;20125;-79
2023/07/24 04:31:50;;;;;;;6.38;3.40;;;;;;;19.60;100.00;99568.28;5034863;28;20021;-79
2023/07/24 04:34:18;;;;;;;8.55;3.40;;;;;;;19.72;100.00;99572.38;5035060;28;20036;-80
2023/07/24 04:36:44;;;;;;;8.90;3.88;;;;;;;19.84;100.00;99564.09;5034971;28;20030;-78
2023/07/24 04:39:11;;;;;;;6.43;3.22;;;;;;;19.92;100.00;99562.00;5034745;28;20049;-80
2023/07/24 04:41:37;;;;;;;4.35;2.97;;;;;;;19.95;100.00;99558.72;5034666;28;20037;-79
2023/07/24 04:44:04;;;;;;;5.03;3.88;;;;;;;20.02;100.00;99554.31;5033409;28;20025;-78
2023/07/24 04:46:30;;;;;;;7.85;3.80;;;;;;;20.09;100.00;99564.38;5034626;28;20117;-79
2023/07/24 04:48:58;;;;;;;8.55;3.13;;;;;;;20.16;100.00;99558.56;5034838;28;20029;-78
2023/07/24 04:51:24;;;;;;;9.43;3.65;;;;;;;20.22;100.00;99562.06;5034537;28;20025;-78
2023/07/24 04:53:51;;;;;;;6.57;2.80;;;;;;;20.24;100.00;99559.38;5016920;28;20029;-78
2023/07/24 04:56:17;;;;;;;7.20;3.38;;;;;;;20.28;100.00;99550.28;5032470;28;20447;-80
2023/07/24 04:58:44;;;;;;;5.15;3.53;;;;;;;20.45;100.00;99559.16;5032873;28;20126;-78
2023/07/24 05:01:24;;;;;;;6.57;3.00;;;;;;;20.63;100.00;99555.09;5034666;28;20053;-79
2023/07/24 05:03:49;;;;;;;8.52;3.65;;;;;;;20.78;100.00;99552.22;5034584;28;20537;-80
2023/07/24 05:06:15;;;;;;;10.95;3.42;;;;;;;20.97;100.00;99551.00;5034458;28;20165;-79
2023/07/24 05:08:41;;;;;;;8.32;3.83;;;;;;;21.06;100.00;99547.50;5031853;28;20041;-79
2023/07/24 05:11:07;;;;;;;9.02;3.88;;;;;;;21.24;100.00;99552.09;5033881;28;20108;-79
2023/07/24 05:13:33;;;;;;;6.65;3.42;;;;;;;21.38;100.00;99549.72;5031857;28;20124;-78
2023/07/24 05:15:58;;;;;;;9.65;3.35;;;;;;;21.49;100.00;99552.22;5033895;28;20490;-78
2023/07/24 05:18:24;;;;;;;11.43;3.58;;;;;;;21.62;100.00;99549.06;5032122;28;20030;-79
2023/07/24 05:20:51;;;;;;;8.45;3.50;;;;;;;21.64;100.00;99534.69;5033404;28;20044;-79
2023/07/24 05:23:19;;;;;;;9.57;3.92;;;;;;;21.81;100.00;99534.81;5048884;28;20060;-80
2023/07/24 05:25:45;;;;;;;10.57;3.67;;;;;;;21.96;100.00;99528.88;5034697;28;20029;-81
2023/07/24 05:28:10;;;;;;;6.63;3.53;;;;;;;22.11;100.00;99525.09;5033920;28;20033;-81
2023/07/24 05:30:36;;;;;;;7.05;3.67;;;;;;;22.26;100.00;99524.25;5015795;28;20040;-79
2023/07/24 05:33:04;;;;;;;7.32;3.33;;;;;;;22.40;100.00;99519.66;5016273;28;20037;-80
2023/07/24 05:35:30;;;;;;;7.72;4.07;;;;;;;22.52;100.00;99509.03;5033887;28;20080;-81
2023/07/24 05:37:55;;;;;;;7.55;3.70;;;;;;;22.70;100.00;99510.63;5033471;28;20033;-81
2023/07/24 05:40:22;;;;;;;7.57;3.78;;;;;;;22.86;99.59;99508.34;5033039;28;20043;-74
2023/07/24 05:42:49;;;;;;;10.15;3.25;;;;;;;23.09;98.68;99511.00;5035114;28;20040;-76
2023/07/24 05:45:15;;;;;;;7.10;3.47;;;;;;;23.32;97.43;99508.59;5035322;28;20041;-76
2023/07/24 05:47:42;;;;;;;10.85;3.80;;;;;;;23.57;97.40;99506.34;5053447;28;20029;-75
2023/07/24 05:50:09;;;;;;;8.30;3.90;;;;;;;23.82;95.51;99497.44;5053292;28;20036;-76
2023/07/24 05:52:34;;;;;;;7.00;3.95;;;;;;;24.04;93.41;99496.31;5051843;28;20489;-75
2023/07/24 05:55:00;;;;;;;8.50;3.42;;;;;;;24.17;89.94;99492.22;5053083;28;20029;-76
2023/07/24 05:57:26;;;;;;;5.13;3.58;;;;;;;24.23;89.88;99483.97;5035513;28;20374;-77
2023/07/24 05:59:52;;;;;;;9.43;3.83;;;;;;;24.32;87.55;99492.00;5050991;28;20455;-78
2023/07/24 06:02:18;;;;;;;9.18;3.88;;;;;;;24.35;87.21;99490.75;5051193;28;20048;-76
2023/07/24 06:04:43;;;;;;;5.60;3.55;;;;;;;24.39;87.26;99491.09;5031716;28;20025;-76
2023/07/24 06:07:09;;;;;;;7.63;3.97;;;;;;;24.36;85.55;99485.69;5032878;28;20393;-77
2023/07/24 06:09:34;;;;;;;10.70;3.47;;;;;;;24.34;84.78;99492.16;5034799;28;20179;-77
2023/07/24 06:12:01;;;;;;;6.93;3.80;;;;;;;24.35;84.30;99490.00;5051756;28;20471;-76
2023/07/24 06:14:27;;;;;;;10.48;3.90;;;;;;;24.34;83.34;99488.47;5052267;28;20053;-77
2023/07/24 06:16:53;;;;;;;8.68;3.58;;;;;;;24.28;83.30;99482.91;5052099;28;20033;-77
2023/07/24 06:19:21;;;;;;;10.20;3.20;;;;;;;24.23;83.66;99471.53;5050092;28;20040;-77
2023/07/24 06:21:48;;;;;;;8.35;3.60;;;;;;;24.18;84.21;99474.09;5052630;28;20025;-77
2023/07/24 06:24:18;;;;;;;7.57;4.25;;;;;;;24.14;84.95;99464.25;5057872;28;20354;-77
2023/07/24 06:26:44;;;;;;;22.63;5.35;;;;;;;24.12;84.72;99473.59;5041917;28;20060;-77
2023/07/24 06:29:09;;;;;;;12.00;4.50;;;;;;;24.05;84.22;99483.25;5059586;28;20100;-77
2023/07/24 06:31:37;;;;;;;9.65;3.70;;;;;;;23.93;85.14;99478.59;5059398;28;20116;-78
2023/07/24 06:34:11;;;;;;;9.15;4.00;;;;;;;23.88;86.57;99485.47;5058760;28;20025;-77
2023/07/24 06:36:38;;;;;;;6.70;4.43;;;;;;;23.91;87.00;99487.19;5041564;28;20029;-76
2023/07/24 06:39:03;;;;;;;11.50;4.00;;;;;;;23.91;87.85;99493.00;5059298;28;20045;-79
2023/07/24 06:41:28;;;;;;;6.03;3.63;;;;;;;23.94;87.90;99488.91;5041232;28;20075;-77
2023/07/24 06:43:54;;;;;;;6.88;3.97;;;;;;;23.94;87.19;99480.13;5059066;28;20056;-77
2023/07/24 06:46:24;;;;;;;7.05;3.67;;;;;;;24.06;87.23;99476.03;5041291;28;20036;-77
2023/07/24 06:48:57;;;;;;;10.05;3.92;;;;;;;24.20;85.58;99482.22;5058583;28;20020;-77
2023/07/24 06:51:22;;;;;;;6.47;3.75;;;;;;;24.37;84.00;99479.25;5059265;28;20044;-79
2023/07/24 06:53:47;;;;;;;6.00;3.30;;;;;;;24.62;82.12;99490.69;5058879;28;20032;-77
2023/07/24 06:56:13;;;;;;;6.90;3.80;;;;;;;24.90;76.68;99486.28;5058293;28;20028;-77
2023/07/24 06:58:39;;;;;;;5.60;3.25;;;;;;;25.18;74.23;99482.63;5059219;28;20025;-78
2023/07/24 07:01:08;;;;;;;7.13;3.88;;;;;;;25.33;70.44;99478.59;5058859;28;20037;-78
2023/07/24 07:03:38;;;;;;;7.15;3.72;;;;;;;25.51;70.82;99485.06;5041289;28;20100;-80
2023/07/24 07:06:03;;;;;;;5.07;3.53;;;;;;;25.98;70.66;99486.31;5059146;28;20116;-77
2023/07/24 07:08:30;;;;;;;5.88;3.88;;;;;;;26.65;64.81;99480.16;5058575;28;20112;-77
2023/07/24 07:10:59;;;;;;;6.68;3.67;;;;;;;27.12;56.81;99475.34;5059241;28;20398;-78
2023/07/24 07:13:26;;;;;;;7.47;3.85;;;;;;;27.57;55.74;99474.00;5009344;28;20053;-80
2023/07/24 07:15:53;;;;;;;10.98;4.05;;;;;;;28.22;53.54;99477.47;5041663;28;20063;-77
2023/07/24 07:18:19;;;;;;;4.18;3.38;;;;;;;28.81;49.13;99476.78;5058709;28;20157;-77
2023/07/24 07:20:48;;;;;;;4.72;3.55;;;;;;;29.05;44.67;99470.88;5057496;28;20116;-78
2023/07/24 07:23:15;;;;;;;6.03;4.03;;;;;;;29.12;43.87;99469.84;5038568;28;20045;-77
2023/07/24 07:25:44;;;;;;;9.13;3.67;;;;;;;29.08;43.09;99466.66;5058932;28;20037;-76
2023/07/24 07:28:10;;;;;;;6.32;3.42;;;;;;;29.00;43.58;99477.88;5041225;28;20036;-77
2023/07/24 07:30:35;;;;;;;6.60;3.97;;;;;;;29.17;44.31;99483.38;5024177;28;20037;-76
2023/07/24 07:33:01;;;;;;;6.00;3.90;;;;;;;29.21;42.39;99475.56;5058157;28;20033;-77
2023/07/24 07:35:28;;;;;;;8.95;3.53;;;;;;;29.26;42.47;99476.56;5055264;28;20041;-77
2023/07/24 07:38:01;;;;;;;6.68;3.70;;;;;;;29.75;41.01;99477.22;5055783;28;20021;-76
2023/07/24 07:40:29;;;;;;;7.07;4.25;;;;;;;30.53;41.08;99474.22;5055520;28;20467;-77
2023/07/24 07:42:59;;;;;;;6.28;3.08;;;;;;;31.65;39.84;99466.03;5037748;28;20033;-76
2023/07/24 07:45:24;;;;;;;7.53;3.40;;;;;;;32.28;35.42;99461.00;5038184;28;20045;-77
2023/07/24 07:47:57;;;;;;;8.38;4.70;;;;;;;32.86;33.78;99459.97;5054992;28;20474;-77
2023/07/24 07:50:22;;;;;;;4.80;3.13;;;;;;;33.25;31.75;99456.50;5053919;28;20063;-78
2023/07/24 07:52:53;;;;;;;4.97;3.83;;;;;;;33.80;31.66;99449.91;5055211;28;20474;-78
2023/07/24 07:55:19;;;;;;;5.32;3.80;;;;;;;34.56;31.17;99458.06;5055453;28;20868;-78
2023/07/24 07:57:45;;;;;;;5.75;3.78;;;;;;;34.94;29.82;99443.16;5054905;28;20037;-76
2023/07/24 08:00:12;;;;;;;6.40;3.92;;;;;;;35.50;29.83;99445.09;5054922;28;20039;-77
2023/07/24 08:02:41;;;;;;;7.93;4.13;;;;;;;36.04;27.54;99445.41;5053349;28;20109;-78
2023/07/24 08:05:08;;;;;;;5.57;3.72;;;;;;;35.58;25.79;99453.56;5053961;28;20032;-80
2023/07/24 08:07:33;;;;;;;8.23;3.97;;;;;;;34.99;27.37;99456.69;5053712;28;20447;-80
2023/07/24 08:09:59;;;;;;;7.30;4.20;;;;;;;34.73;28.18;99465.41;5053629;28;20065;-79
2023/07/24 08:12:24;;;;;;;10.80;4.47;;;;;;;34.00;27.54;99452.91;5054891;28;20045;-78
2023/07/24 08:14:50;;;;;;;6.00;4.15;;;;;;;33.68;28.07;99459.06;5055112;28;20025;-79
2023/07/24 08:17:16;;;;;;;5.88;3.90;;;;;;;33.75;29.59;99463.81;5054160;28;20037;-77
2023/07/24 08:19:43;;;;;;;5.78;4.20;;;;;;;33.97;29.67;99458.00;5054984;28;20040;-80
2023/07/24 08:22:08;;;;;;;6.10;3.83;;;;;;;33.90;29.30;99459.97;5053251;28;20040;-80
2023/07/24 08:24:35;;;;;;;5.00;4.07;;;;;;;33.65;29.02;99447.78;5049972;28;20486;-79
2023/07/24 08:27:01;;;;;;;4.25;3.65;;;;;;;33.03;29.86;99456.25;5036601;28;20049;-78
2023/07/24 08:29:28;;;;;;;7.10;3.90;;;;;;;32.87;31.18;99461.50;5054696;28;20422;-80
2023/07/24 08:31:53;;;;;;;5.97;3.50;;;;;;;32.92;30.50;99453.56;5003446;28;20178;-78
2023/07/24 08:34:19;;;;;;;8.23;4.18;;;;;;;33.17;29.54;99468.00;5036572;28;20112;-77
2023/07/24 08:36:47;;;;;;;5.82;4.28;;;;;;;32.78;30.69;99467.72;5054588;28;20036;-79
2023/07/24 08:39:12;;;;;;;7.65;4.28;;;;;;;32.79;29.59;99458.16;5053521;28;20390;-79
2023/07/24 08:41:38;;;;;;;5.57;3.80;;;;;;;33.13;29.15;99438.16;5036691;28;20037;-79
2023/07/24 08:44:24;;;;;;;7.35;4.28;;;;;;;33.63;29.43;99457.34;5053654;28;20052;-74
2023/07/24 08:46:51;;;;;;;4.68;4.05;;;;;;;33.53;28.88;99459.88;5051680;28;20171;-77
2023/07/24 08:49:18;;;;;;;6.75;4.53;;;;;;;33.36;29.97;99451.78;5019684;28;20037;-77
2023/07/24 08:51:45;;;;;;;10.85;5.00;;;;;;;33.10;29.72;99449.19;5036237;28;20045;-77
2023/07/24 08:54:12;;;;;;;7.07;4.22;;;;;;;32.91;29.66;99455.75;5053420;28;20052;-76
2023/07/24 08:56:39;;;;;;;5.95;3.80;;;;;;;32.79;30.81;99436.66;5053775;28;20029;-77
2023/07/24 08:59:04;;;;;;;6.65;4.57;;;;;;;33.19;30.22;99437.69;5036456;28;20025;-76
2023/07/24 09:01:30;;;;;;;11.07;4.40;;;;;;;33.41;29.72;99429.75;5053231;28;20040;-77
2023/07/24 09:03:56;;;;;;;13.75;4.65;;;;;;;33.60;29.34;99431.25;5054407;28;20044;-77
2023/07/24 09:06:21;;;;;;;7.25;4.30;;;;;;;33.75;30.26;99431.19;5053272;28;20029;-78
2023/07/24 09:08:47;;;;;;;8.02;4.53;;;;;;;33.94;28.53;99423.78;5053212;28;20035;-77
2023/07/24 09:11:14;;;;;;;10.63;4.43;;;;;;;34.24;28.62;99419.06;5054628;28;20032;-76
2023/07/24 09:13:42;;;;;;;6.75;4.43;;;;;;;34.57;29.00;99409.13;5053998;28;20081;-79
2023/07/24 09:16:08;;;;;;;7.53;4.43;;;;;;;34.86;28.64;99405.00;5054375;28;20040;-76
2023/07/24 09:18:41;;;;;;;21.80;5.57;;;;;;;35.00;27.80;99401.78;5036070;28;20112;-76
2023/07/24 09:21:06;;;;;;;6.40;4.32;;;;;;;35.15;28.10;99392.66;5054651;28;20039;-75
2023/07/24 09:23:31;;;;;;;6.03;4.75;;;;;;;34.98;28.46;99398.72;5053896;28;20033;-74
2023/07/24 09:25:57;;;;;;;6.70;4.20;;;;;;;34.43;28.88;99404.88;5054151;28;20037;-77
2023/07/24 09:28:23;;;;;;;5.30;4.10;;;;;;;34.22;29.10;99406.31;5053781;28;20364;-76
2023/07/24 09:30:56;;;;;;;8.60;4.65;;;;;;;33.71;29.90;99394.69;5053702;28;20029;-77
2023/07/24 09:33:43;;;;;;;6.68;4.05;;;;;;;33.39;29.65;99391.91;5053758;28;20541;-76
2023/07/24 09:36:10;;;;;;;14.70;5.35;;;;;;;33.02;29.66;99388.84;5054033;28;20056;-76
2023/07/24 09:38:36;;;;;;;7.22;4.72;;;;;;;32.75;30.06;99389.13;5053725;28;20025;-75
2023/07/24 09:41:03;;;;;;;9.50;4.50;;;;;;;32.30;30.29;99398.97;5052349;28;20024;-77
2023/07/24 09:43:29;;;;;;;17.92;5.00;;;;;;;31.84;31.73;99394.59;5053460;28;20555;-76
2023/07/24 09:45:55;;;;;;;7.00;4.45;;;;;;;31.46;32.25;99399.34;5053729;28;20529;-77
2023/07/24 09:48:25;;;;;;;9.32;4.55;;;;;;;30.87;33.59;99404.47;5053363;28;20466;-76
2023/07/24 09:50:55;;;;;;;8.77;5.00;;;;;;;30.40;34.13;99390.22;5053514;28;20036;-74
2023/07/24 09:53:30;;;;;;;15.05;4.88;;;;;;;30.35;36.86;99388.50;5053845;28;20028;-78
2023/07/24 09:55:56;;;;;;;8.35;4.75;;;;;;;30.61;37.17;99383.22;5053318;28;20029;-77
2023/07/24 09:58:23;;;;;;;6.20;4.05;;;;;;;31.13;36.93;99385.16;5052430;28;20133;-76
2023/07/24 10:00:49;;;;;;;8.63;3.55;;;;;;;31.47;34.36;99385.34;5053337;28;20482;-76
2023/07/24 10:03:15;;;;;;;6.53;4.00;;;;;;;31.54;33.96;99387.19;5053412;28;20029;-76
2023/07/24 10:05:43;;;;;;;7.88;4.18;;;;;;;31.49;34.10;99394.34;5052081;28;20031;-76
2023/07/24 10:08:10;;;;;;;8.45;4.50;;;;;;;31.31;34.05;99383.13;5052110;28;20381;-76
2023/07/24 10:10:36;;;;;;;8.00;4.70;;;;;;;31.27;34.59;99374.09;5053177;28;20025;-78
2023/07/24 10:13:01;;;;;;;7.90;4.97;;;;;;;31.07;35.58;99381.13;5031778;28;20127;-76
2023/07/24 10:15:28;;;;;;;6.75;4.40;;;;;;;30.88;35.87;99383.16;5033486;28;20064;-75
2023/07/24 10:18:02;;;;;;;5.35;4.28;;;;;;;30.76;37.50;99367.78;5033206;28;20064;-76
2023/07/24 10:20:33;;;;;;;12.80;4.80;;;;;;;30.72;37.58;99373.47;5032915;28;20032;-75
2023/07/24 10:23:02;;;;;;;12.65;5.47;;;;;;;30.58;36.68;99369.75;5033321;28;20024;-76
2023/07/24 10:25:32;;;;;;;8.07;4.70;;;;;;;30.44;36.60;99377.88;5032966;28;20490;-76
2023/07/24 10:28:17;;;;;;;7.88;5.25;;;;;;;30.26;36.97;99380.63;5032622;28;20112;-76
2023/07/24 10:30:43;;;;;;;6.75;5.10;;;;;;;29.90;38.37;99390.41;5033011;28;20021;-76
2023/07/24 10:33:17;;;;;;;8.88;4.25;;;;;;;29.55;39.68;99391.41;5032029;28;20025;-75
2023/07/24 10:35:47;;;;;;;6.82;4.70;;;;;;;29.09;41.42;99391.66;5031533;28;20031;-77
2023/07/24 10:38:14;;;;;;;7.95;5.00;;;;;;;28.80;42.37;99389.19;5033151;28;20436;-75
2023/07/24 10:40:41;;;;;;;11.85;4.80;;;;;;;28.61;43.09;99387.34;5032996;28;20053;-75
2023/07/24 10:43:08;;;;;;;7.07;4.53;;;;;;;28.40;44.31;99376.47;5031990;28;20025;-77
2023/07/24 10:45:48;;;;;;;7.93;4.38;;;;;;;28.33;45.36;99374.59;5032852;28;20029;-76
2023/07/24 10:48:18;;;;;;;6.38;4.95;;;;;;;28.35;45.65;99356.31;5031530;28;20136;-77
2023/07/24 10:50:45;;;;;;;8.25;4.80;;;;;;;28.32;44.45;99358.38;5033094;28;20075;-77
2023/07/24 10:53:13;;;;;;;8.02;5.13;;;;;;;28.19;45.09;99352.38;5048257;28;20025;-76
2023/07/24 10:55:39;;;;;;;8.13;4.47;;;;;;;28.16;44.66;99342.66;5033028;28;20040;-78
2023/07/24 10:58:05;;;;;;;10.50;4.85;;;;;;;28.01;45.19;99331.44;5032877;28;20096;-77
2023/07/24 11:00:30;;;;;;;8.98;5.00;;;;;;;27.90;45.29;99329.28;5032809;28;20036;-78
2023/07/24 11:02:56;;;;;;;11.25;4.50;;;;;;;27.78;46.36;99329.28;5032938;28;20025;-77
2023/07/24 11:05:22;;;;;;;8.57;4.53;;;;;;;27.71;46.88;99329.53;5033053;28;20029;-76
2023/07/24 11:07:48;;;;;;;7.13;4.40;;;;;;;27.69;48.18;99324.31;5032518;28;20139;-75
2023/07/24 11:10:17;;;;;;;7.95;4.75;;;;;;;27.82;49.88;99319.94;5035383;28;20075;-78
2023/07/24 11:12:44;;;;;;;8.75;4.97;;;;;;;27.96;52.99;99315.75;5035041;28;20513;-76
2023/07/24 11:15:09;;;;;;;9.52;4.90;;;;;;;28.14;52.61;99315.34;5036246;28;20036;-78
2023/07/24 11:17:42;;;;;;;9.82;4.45;;;;;;;28.32;53.89;99296.63;5035282;28;20021;-77
2023/07/24 11:20:08;;;;;;;9.15;5.47;;;;;;;28.54;52.89;99302.34;5036362;28;20402;-77
2023/07/24 11:22:34;;;;;;;8.95;4.68;;;;;;;28.66;51.21;99295.00;5036475;28;20025;-77
2023/07/24 11:25:01;;;;;;;10.43;4.55;;;;;;;28.68;49.79;99303.19;5036187;28;20044;-77
2023/07/24 11:27:26;;;;;;;11.95;5.20;;;;;;;28.59;48.59;99298.97;5018500;28;20087;-77
2023/07/24 11:29:52;;;;;;;10.02;4.82;;;;;;;28.48;47.85;99305.69;5034219;28;20029;-76